Home > Products > Valid Products > TAF

000
FTUS46 KSTO 200500
TAFSCK
TAF
KSCK 200537Z 2006/2106 12008KT 5SM BR VCSH OVC025
      TEMPO 2006/2010 3SM -SHRA BR OVC015
     FM202100 16008KT 5SM BR OVC015=



000
FTUS46 KSTO 200500
TAFSMF
TAF
KSMF 200537Z 2006/2106 15005KT P6SM OVC010
      TEMPO 2006/2010 1 1/2SM BR OVC004
     FM201100 14005KT 1SM BR OVC004
      TEMPO 2011/2015 1/4SM FG OVC001
     FM201600 16005KT 3SM BR VCSH OVC015
     FM202000 18009KT 3SM BR OVC015=



000
FTUS46 KSTO 200500
TAFRBL
TAF
KRBL 200537Z 2006/2106 16009KT 5SM BR OVC007
      TEMPO 2008/2012 3SM -RA BR OVC004
     FM202000 16009KT P6SM VCSH OVC015=



000
FTUS46 KSTO 200500
TAFMHR
TAF
KMHR 200537Z 2006/2106 15005KT P6SM OVC025
      TEMPO 2006/2010 2SM BR OVC006
     FM201100 14005KT 1SM BR OVC005
      TEMPO 2011/2015 1/4SM FG OVC001
     FM201600 16005KT 3SM BR VCSH OVC015
     FM202000 18009KT 3SM BR OVC015
      AMD NOT SKED=



000
FTUS46 KSTO 200500
TAFRDD
TAF
KRDD 200537Z 2006/2106 18010KT 3SM BR OVC007
      TEMPO 2007/2011 1SM -RA BR OVC004
     FM201100 18006KT 3SM -SHRA BR OVC006
     FM202000 18005KT 5SM BR VCSH OVC015=



000
FTUS46 KSTO 200500
TAFSAC
TAF
KSAC 200537Z 2006/2106 15005KT P6SM OVC020
      TEMPO 2006/2010 2SM BR OVC005
     FM201100 14005KT 1SM BR OVC004
      TEMPO 2011/2015 1/4SM FG OVC001
     FM201600 16005KT 3SM BR VCSH OVC015
     FM202000 18009KT 3SM BR OVC015=



000
FTUS46 KSTO 200300 AAB
TAFMHR
TAF AMD
KMHR 200314Z 2003/2024 12005KT P6SM OVC030
      TEMPO 2003/2007 5SM BR OVC005
     FM200700 14005KT 5SM BR OVC005
      TEMPO 2007/2011 3SM -SHRA BR OVC015
     FM201700 15005KT P6SM VCSH OVC025=



000
FTUS46 KSTO 200300 AAB
TAFSAC
TAF AMD
KSAC 200314Z 2003/2024 14006KT P6SM FEW007 OVC025
      TEMPO 2003/2007 4SM BR OVC007
     FM200700 15006KT 4SM BR OVC007
      TEMPO 2007/2011 3SM -SHRA OVC015
     FM201700 15005KT 4SM BR VCSH OVC015=



000
FTUS46 KSTO 200300 AAB
TAFMHR
TAF AMD
KMHR 200314Z 2003/2024 12005KT P6SM OVC030
      TEMPO 2003/2007 5SM BR OVC005
     FM200700 14005KT 5SM BR OVC005
      TEMPO 2007/2011 3SM -SHRA BR OVC015
     FM201700 15005KT P6SM VCSH OVC025=



000
FTUS46 KSTO 200300 AAB
TAFSAC
TAF AMD
KSAC 200314Z 2003/2024 14006KT P6SM FEW007 OVC025
      TEMPO 2003/2007 4SM BR OVC007
     FM200700 15006KT 4SM BR OVC007
      TEMPO 2007/2011 3SM -SHRA OVC015
     FM201700 15005KT 4SM BR VCSH OVC015=



000
FTUS46 KSTO 200100 AAA
TAFMHR
TAF AMD
KMHR 200147Z 2002/2024 14004KT 2SM -SHRA BR SCT004 OVC015
      TEMPO 2002/2006 5SM -SHRA BR OVC004
     FM200700 14005KT 4SM -SHRA BR OVC015
     FM201200 15005KT P6SM VCSH OVC025=



000
FTUS46 KSTO 200100 AAA
TAFRBL
TAF AMD
KRBL 200147Z 2002/2024 16013KT P6SM VCSH OVC008
      TEMPO 2002/2006 4SM -SHRA BR OVC005
     FM201200 16007KT 3SM -SHRA BR OVC008=



000
FTUS46 KSTO 200100 AAA
TAFSAC
TAF AMD
KSAC 200147Z 2002/2024 14003KT P6SM VCSH SCT007 OVC015
      TEMPO 2002/2006 3SM -SHRA BR OVC007
     FM200700 15006KT 3SM -SHRA OVC015
     FM201200 15005KT 4SM BR VCSH OVC015=



000
FTUS46 KSTO 200100 AAA
TAFSMF
TAF AMD
KSMF 200147Z 2002/2024 15005KT P6SM BKN007 OVC015
     FM200700 15006KT 3SM -SHRA BR OVC015
     FM201200 16005KT 5SM BR VCSH OVC015=



000
FTUS46 KSTO 200100 AAA
TAFRBL
TAF AMD
KRBL 200147Z 2002/2024 16013KT P6SM VCSH OVC008
      TEMPO 2002/2006 4SM -SHRA BR OVC005
     FM201200 16007KT 3SM -SHRA BR OVC008=



000
FTUS46 KSTO 200100 AAA
TAFMHR
TAF AMD
KMHR 200147Z 2002/2024 14004KT 2SM -SHRA BR SCT004 OVC015
      TEMPO 2002/2006 5SM -SHRA BR OVC004
     FM200700 14005KT 4SM -SHRA BR OVC015
     FM201200 15005KT P6SM VCSH OVC025=



000
FTUS46 KSTO 192300
TAFMHR
TAF
KMHR 192324Z 2000/2024 14007KT 6SM -SHRA FEW015 OVC025
      TEMPO 2000/2004 4SM -SHRA BR
     FM201200 15005KT P6SM VCSH OVC025=



000
FTUS46 KSTO 192300
TAFRBL
TAF
KRBL 192324Z 2000/2024 16014KT P6SM VCSH OVC015
     FM200400 16010KT 4SM BR VCSH OVC008
     FM201200 16007KT 3SM -SHRA BR OVC008=



000
FTUS46 KSTO 192300
TAFRDD
TAF
KRDD 192324Z 2000/2024 18010KT P6SM VCSH OVC008
     FM200800 18005KT 3SM -SHRA BR OVC008=



000
FTUS46 KSTO 192300
TAFSAC
TAF
KSAC 192324Z 2000/2024 15007KT 4SM -SHRA BR FEW015 OVC025
      TEMPO 2000/2004 2SM -SHRA BR BKN015
     FM201200 15005KT 4SM BR VCSH OVC015=



000
FTUS46 KSTO 192300
TAFSCK
TAF
KSCK 192324Z 2000/2024 14010KT 6SM -SHRA OVC050
      TEMPO 2000/2004 3SM -SHRA BR OVC030
     FM200600 15005KT 4SM BR VCSH OVC025
     FM202000 16008KT P6SM OVC025=



000
FTUS46 KSTO 192300
TAFSMF
TAF
KSMF 192324Z 2000/2024 15010KT 4SM -SHRA BR FEW015 OVC025
      TEMPO 2000/2004 2SM -SHRA BR BKN015
     FM201200 16005KT 5SM BR VCSH OVC015=



000
FTUS46 KSTO 191700
TAFRDD
TAF
KRDD 191736Z 1918/2018 18012KT P6SM VCSH OVC015
     FM200400 18005KT 5SM -SHRA BR OVC010=



000
FTUS46 KSTO 191700
TAFSCK
TAF
KSCK 191736Z 1918/2018 14012KT 4SM -RA BR OVC035
      TEMPO 1918/1921 P6SM -RA OVC050
     FM192100 14010KT 4SM BR VCSH OVC025
     FM200200 15005KT 5SM BR VCSH OVC025=



000
FTUS46 KSTO 191700
TAFSMF
TAF
KSMF 191736Z 1918/2018 16013KT 4SM -RA BR SCT025 OVC035
      TEMPO 1918/1920 2SM RA BR BKN025
     FM192100 16011KT 5SM -SHRA BR OVC025
     FM200200 16005KT 5SM BR VCSH OVC025=



000
FTUS46 KSTO 191700
TAFMHR
TAF
KMHR 191736Z 1918/2018 15014KT 4SM -RA BR SCT025 OVC035
      TEMPO 1918/1920 2SM RA BR BKN025
     FM192100 15010KT 5SM -SHRA BR OVC025
     FM200200 15005KT P6SM VCSH OVC025=



000
FTUS46 KSTO 191700
TAFSAC
TAF
KSAC 191736Z 1918/2018 15012KT 4SM -RA BR SCT025 OVC035
      TEMPO 1918/1920 2SM RA BR BKN025
     FM192100 15010KT 5SM -SHRA BR OVC025
     FM200200 15005KT 4SM BR VCSH OVC025=



000
FTUS46 KSTO 191700
TAFRBL
TAF
KRBL 191736Z 1918/2018 16014KT P6SM VCSH OVC015
     FM201200 16007KT 4SM -SHRA BR OVC010=



000
FTUS46 KSTO 191100 RRA
TAFSAC
TAF
KSAC 191147Z 1912/2012 15012KT 5SM BR BKN050
     FM191500 15014KT 4SM -SHRA BR OVC025
     FM200000 15007KT 5SM BR VCSH SCT025 OVC035
     FM200900 13003KT 4SM BR OVC025=



000
FTUS46 KSTO 191100 RRA
TAFSCK
TAF
KSCK 191147Z 1912/2012 13006KT 6SM BR OVC070
     FM191600 14010KT 3SM -SHRA BR OVC030
     FM200100 14010KT 4SM BR VCSH OVC015=



000
FTUS46 KSTO 191100 RRA
TAFRBL
TAF
KRBL 191147Z 1912/2012 16018G28KT 6SM -SHRA BR OVC010
      TEMPO 1912/1915 3SM SHRA BR BKN006 OVC010
     FM191700 16012KT P6SM VCSH OVC020=



000
FTUS46 KSTO 191100 RRA
TAFMHR
TAF
KMHR 191147Z 1912/2012 13008KT P6SM BKN050
     FM191600 15014KT 4SM -SHRA BR OVC025
     FM200200 15005KT 5SM BR VCSH SCT025 OVC035
     FM200900 13003KT 5SM BR OVC025=



000
FTUS46 KSTO 191100 RRA
TAFSMF
TAF
KSMF 191147Z 1912/2012 15012KT P6SM BKN050
     FM191500 15014G20KT 4SM -SHRA BR OVC025
     FM200000 16008KT 5SM BR VCSH SCT025 OVC035
     FM200800 16004KT 4SM BR OVC025=



000
FTUS46 KSTO 191100 RRA
TAFRDD
TAF
KRDD 191147Z 1912/2012 17018G28KT 6SM -SHRA OVC012
      TEMPO 1912/1915 3SM SHRA BR BKN008 OVC012
     FM191700 18012KT 5SM -SHRA BR OVC015
     FM192100 17005KT P6SM VCSH SCT015 OVC025=



000
FTUS46 KSTO 190900 AAA
TAFSCK
TAF AMD
KSCK 190956Z 1910/2006 13006KT 5SM BR OVC050
     FM191400 14010KT 3SM -RA BR OVC020
     FM200100 14010KT 4SM BR VCSH OVC015=



000
FTUS46 KSTO 190900 AAA
TAFSCK
TAF AMD
KSCK 190956Z 1910/2006 13006KT 5SM BR OVC050
     FM191400 14010KT 3SM -RA BR OVC020
     FM200100 14010KT 4SM BR VCSH OVC015=



000
FTUS46 KSTO 190900 AAA
TAFRBL
TAF AMD
KRBL 190949Z 1910/2006 16014G20KT 6SM -RA BR SCT009 BKN018 OVC040
      TEMPO 1910/1913 3SM RA BR BKN006 OVC015
     FM192000 16011KT P6SM VCSH OVC020=



000
FTUS46 KSTO 190900 AAA
TAFRBL
TAF AMD
KRBL 190949Z 1910/2006 16014G20KT 6SM -RA BR SCT009 BKN018 OVC040
      TEMPO 1910/1913 3SM RA BR BKN006 OVC015
     FM192000 16011KT P6SM VCSH OVC020=



000
FTUS46 KSTO 190900 AAA
TAFRDD
TAF AMD
KRDD 190946Z 1910/2006 VRB04KT 6SM -RA SCT008 OVC015
      TEMPO 1910/1914 3SM RA BR BKN005 OVC015
     FM191500 18006KT 5SM -RA BR OVC015
     FM192100 17005KT P6SM VCSH SCT007 OVC015=



000
FTUS46 KSTO 190900 AAA
TAFRDD
TAF AMD
KRDD 190946Z 1910/2006 VRB04KT 6SM -RA SCT008 OVC015
      TEMPO 1910/1914 3SM RA BR BKN005 OVC015
     FM191500 18006KT 5SM -RA BR OVC015
     FM192100 17005KT P6SM VCSH SCT007 OVC015=



000
FTUS46 KSTO 190500
TAFRDD
TAF
KRDD 190533Z 1906/2006 VRB04KT 5SM -RA SCT005 OVC015
      TEMPO 1906/1910 3SM -RA BR OVC005
     FM191000 15011KT 2SM RA OVC005
      TEMPO 1910/1914 4SM -RA SCT005 OVC015
     FM191500 18006KT 5SM -RA BR OVC015
     FM192100 17005KT P6SM VCSH SCT007 OVC015=



000
FTUS46 KSTO 190500
TAFMHR
TAF
KMHR 190533Z 1906/2006 13006KT P6SM BKN050
      TEMPO 1908/1912 4SM BR
     FM191200 15010KT 4SM -SHRA BR OVC025
     FM200200 15005KT 5SM BR OVC015
      TEMPO 2004/2006 4SM -SHRA BR OVC025
      AMD NOT SKED=



000
FTUS46 KSTO 190500
TAFSAC
TAF
KSAC 190533Z 1906/2006 15008KT 5SM BR BKN050
     FM191200 15008KT 4SM -SHRA BR OVC025
     FM200200 15005KT 5SM BR OVC015
      TEMPO 2003/2006 4SM -SHRA BR OVC025=



000
FTUS46 KSTO 190500
TAFRBL
TAF
KRBL 190533Z 1906/2006 15009KT P6SM VCSH OVC030
      TEMPO 1906/1909 OVC020
     FM190900 16012G20KT 4SM -RA BR OVC008
      TEMPO 1909/1912 P6SM -RA SCT008 OVC015
     FM192000 16011KT P6SM VCSH OVC015=



000
FTUS46 KSTO 190500
TAFSCK
TAF
KSCK 190533Z 1906/2006 13006KT 5SM BR OVC050
      TEMPO 1910/1914 1SM BR
     FM191400 14010KT 3SM -RA BR OVC020
     FM200100 14010KT 4SM BR VCSH OVC015=



000
FTUS46 KSTO 190500
TAFSMF
TAF
KSMF 190533Z 1906/2006 15008KT P6SM BKN050
      TEMPO 1908/1912 5SM BR
     FM191200 15013KT 4SM -SHRA BR OVC025
     FM200200 16008KT 5SM BR OVC015
      TEMPO 2003/2006 4SM -SHRA BR OVC025=



000
FTUS46 KSTO 190400 AAA
TAFRDD
TAF AMD
KRDD 190453Z 1905/1924 VRB04KT 4SM -RA BR FEW005 OVC015
     FM190800 18011KT 4SM -RA BR OVC010
     FM192100 VRB04KT P6SM VCSH BKN020=



000
FTUS46 KSTO 190200 AAA
TAFRBL
TAF AMD
KRBL 190258Z 1903/1924 VRB04KT P6SM BKN020 OVC040
     FM190600 15009KT P6SM VCSH BKN015 OVC025
     FM190800 16013G20KT 4SM -RA BR OVC008
     FM192100 16007KT P6SM VCSH BKN020=



000
FTUS46 KSTO 182300 CCA
TAFRBL
TAF COR
KRBL 182322Z 1900/1924 18006KT P6SM BKN035
     FM190400 16009KT P6SM VCSH BKN015 OVC025
     FM190800 16013G20KT 4SM -RA BR OVC008
     FM192100 16007KT P6SM VCSH BKN020=



000
FTUS46 KSTO 182300
TAFMHR
TAF
KMHR 182320Z 1900/1924 18006KT P6SM FEW040 BKN200
     FM190800 14008KT P6SM VCSH OVC040
     FM191500 14011KT 4SM -RA BR OVC025=



000
FTUS46 KSTO 182300
TAFSCK
TAF
KSCK 182320Z 1900/1924 14006KT P6SM BKN200
     FM191000 14008KT P6SM VCSH OVC040
     FM191700 14010KT 3SM -RA BR OVC025=



000
FTUS46 KSTO 182300
TAFSAC
TAF
KSAC 182320Z 1900/1924 16007KT P6SM FEW030 BKN200
     FM190800 15010KT P6SM VCSH OVC040
     FM191500 15008KT 4SM -SHRA BR OVC025=



000
FTUS46 KSTO 182300
TAFRBL
TAF
KRBL 182320Z 1900/1924 18006KT P6SM BKN030
     FM190400 16009KT P6SM VCSH BKN015 OVC025
     FM190800 16013G20KT 4SM -RA BR OVC008
     FM192100 16007KT P6SM VCSH BKN020=



000
FTUS46 KSTO 182300
TAFSMF
TAF
KSMF 182320Z 1900/1924 18008KT P6SM FEW030 BKN200
     FM190800 16010KT P6SM VCSH OVC040
     FM191500 16008KT 4SM -SHRA BR OVC025=



000
FTUS46 KSTO 182300
TAFRDD
TAF
KRDD 182320Z 1900/1924 18006KT P6SM VCSH OVC030
     FM190400 18005KT P6SM VCSH BKN015 OVC025
     FM190800 18011KT 4SM -RA BR OVC010
     FM192100 VRB04KT P6SM VCSH BKN020=



000
FTUS46 KSTO 181700
TAFSAC
TAF
KSAC 181732Z 1818/1918 15006KT P6SM BKN200
     FM190800 15010KT P6SM VCSH OVC040
     FM191500 15010KT 4SM -RA BR OVC025=



000
FTUS46 KSTO 181700
TAFRBL
TAF
KRBL 181732Z 1818/1918 16007KT P6SM VCSH FEW006 BKN015 OVC030
      TEMPO 1818/1820 4SM BR BKN006
     FM182000 18006KT P6SM BKN030
     FM190500 16009KT P6SM VCSH BKN015 OVC025
     FM191200 16008KT 4SM -RA BR OVC008=



000
FTUS46 KSTO 181700
TAFSMF
TAF
KSMF 181732Z 1818/1918 16008KT P6SM BKN200
     FM190800 16010KT P6SM VCSH OVC040
     FM191500 16012KT 4SM -RA BR OVC025=



000
FTUS46 KSTO 181700
TAFSCK
TAF
KSCK 181732Z 1818/1918 14006KT P6SM BKN200
     FM191000 14008KT P6SM VCSH OVC040
     FM191700 14010KT 3SM -RA BR OVC025=



000
FTUS46 KSTO 181700
TAFRDD
TAF
KRDD 181732Z 1818/1918 16004KT P6SM FEW006 BKN015 OVC025
     FM182000 18006KT P6SM BKN030
     FM190400 18005KT P6SM VCSH BKN015 OVC025
     FM191200 18010KT 4SM -RA BR OVC010=



000
FTUS46 KSTO 181700
TAFMHR
TAF
KMHR 181732Z 1818/1918 15006KT P6SM BKN200
     FM190800 14008KT P6SM VCSH OVC040
     FM191500 14011KT 4SM -RA BR OVC025=



000
FTUS46 KSTO 181400 AAA
TAFSMF
TAF AMD
KSMF 181454Z 1815/1912 15005KT P6SM OVC050
      TEMPO 1815/1818 BKN015 BKN030 OVC050
     FM190800 15006KT 5SM -DZ BR SCT020 BKN030 OVC050=



000
FTUS46 KSTO 181400 AAA
TAFRBL
TAF AMD
KRBL 181452Z 1815/1912 16007KT P6SM VCSH SCT012 BKN035 OVC040
      TEMPO 1815/1818 SCT012 BKN025 OVC040
     FM181900 18006KT P6SM BKN050
     FM190500 16009KT 5SM -RA BR BKN015 OVC025=



000
FTUS46 KSTO 181100
TAFMHR
TAF
KMHR 181138Z 1812/1912 15005KT P6SM OVC050
      TEMPO 1813/1816 BKN030
     FM190800 14006KT 5SM -DZ BR SCT020 BKN035 OVC050=



000
FTUS46 KSTO 181100
TAFSCK
TAF
KSCK 181138Z 1812/1912 VRB04KT 6SM -RA BR BKN050 OVC070
      TEMPO 1813/1817 4SM BR OVC030
     FM181800 14006KT P6SM BKN050
     FM191000 14006KT 4SM -DZ BR SCT025 BKN035 OVC050=



000
FTUS46 KSTO 181100
TAFSAC
TAF
KSAC 181138Z 1812/1912 15005KT P6SM OVC050
      TEMPO 1813/1816 BKN030
     FM190800 15006KT 5SM -DZ BR SCT020 BKN035 OVC050=



000
FTUS46 KSTO 181100
TAFSMF
TAF
KSMF 181138Z 1812/1912 15005KT P6SM OVC050
      TEMPO 1813/1816 BKN030
     FM190800 15006KT 5SM -DZ BR SCT020 BKN030 OVC050=



000
FTUS46 KSTO 181100
TAFRDD
TAF
KRDD 181138Z 1812/1912 16004KT P6SM FEW009 BKN015 OVC025
      TEMPO 1812/1816 3SM BR OVC009
     FM182000 18006KT P6SM BKN050
     FM190400 18005KT 5SM -RA BR BKN015 OVC025=



000
FTUS46 KSTO 181100
TAFRBL
TAF
KRBL 181138Z 1812/1912 16007KT P6SM VCSH SCT008 BKN025 OVC040
      TEMPO 1812/1816 3SM BR BKN007 OVC020
     FM181900 18006KT P6SM BKN050
     FM190500 16009KT 5SM -RA BR BKN015 OVC025=



000
FTUS46 KSTO 180600 AAA
TAFSMF
TAF AMD
KSMF 180659Z 1807/1906 18007KT P6SM -RA OVC070
      TEMPO 1807/1811 BKN030
     FM181300 15006KT 3SM BR BKN022
     FM181800 16008KT P6SM SCT025 BKN035=



000
FTUS46 KSTO 180600 AAA
TAFRDD
TAF AMD
KRDD 180654Z 1807/1906 18006KT P6SM -RA SCT015 OVC025
      TEMPO 1807/1811 BKN015
     FM181200 VRB05KT 4SM BR VCSH OVC015
     FM181900 18006KT P6SM VCSH BKN050=



000
FTUS46 KSTO 180500
TAFSCK
TAF
KSCK 180530Z 1806/1906 VRB04KT P6SM -SHRA BKN050 OVC070
     FM181300 14006KT 4SM BR OVC025
     FM181900 14006KT P6SM BKN050=



000
FTUS46 KSTO 180500
TAFMHR
TAF
KMHR 180530Z 1806/1906 VRB04KT P6SM -RA BKN023 OVC035
     FM180700 VRB04KT P6SM -RA SCT035 OVC060
     FM181300 VRB04KT 3SM BR BKN022
     FM181900 15007KT P6SM BKN050=



000
FTUS46 KSTO 180500
TAFRDD
TAF
KRDD 180530Z 1806/1906 19008KT P6SM -RA SCT035 OVC050
     FM180800 18006KT P6SM -RA SCT015 OVC025
     FM181200 VRB05KT 4SM BR VCSH OVC015
     FM181900 18006KT P6SM VCSH BKN050=



000
FTUS46 KSTO 180500
TAFRBL
TAF
KRBL 180530Z 1806/1906 16012KT P6SM -RA OVC060
     FM180800 16008KT P6SM -RA BKN025
     FM181200 16005KT P6SM VCSH OVC015
     FM181900 17009KT P6SM VCSH BKN050=



000
FTUS46 KSTO 180500
TAFSAC
TAF
KSAC 180530Z 1806/1906 16007KT P6SM -RA SCT035 OVC060
     FM181300 14003KT 3SM BR BKN022
     FM181800 15006KT P6SM SCT025 BKN035=



000
FTUS46 KSTO 180500
TAFSMF
TAF
KSMF 180530Z 1806/1906 18007KT P6SM -RA OVC070
     FM181300 15006KT 3SM BR BKN022
     FM181800 16008KT P6SM SCT025 BKN035=



000
FTUS46 KSTO 180300 AAA
TAFRBL
TAF AMD
KRBL 180345Z 1804/1824 16012KT P6SM -RA OVC060
     FM180400 16008KT 6SM -RA BR SCT013 BKN035
      TEMPO 1804/1808 3SM RA BKN013
     FM181400 16005KT 6SM BR VCSH OVC008
     FM182000 16012KT P6SM BKN050=



000
FTUS46 KSTO 180300 AAA
TAFRBL
TAF AMD
KRBL 180345Z 1804/1824 16012KT P6SM -RA OVC060
     FM180400 16008KT 6SM -RA BR SCT013 BKN035
      TEMPO 1804/1808 3SM RA BKN013
     FM181400 16005KT 6SM BR VCSH OVC008
     FM182000 16012KT P6SM BKN050=



000
FTUS46 KSTO 180300 AAA
TAFMHR
TAF AMD
KMHR 180343Z 1804/1824 14006KT P6SM -RA OVC045
      TEMPO 1804/1808 4SM RA BR SCT025 OVC035
     FM181400 VRB05KT 3SM BR VCSH BKN010
     FM182000 15007KT P6SM BKN050=



000
FTUS46 KSTO 180300 AAA
TAFMHR
TAF AMD
KMHR 180343Z 1804/1824 14006KT P6SM -RA OVC045
      TEMPO 1804/1808 4SM RA BR SCT025 OVC035
     FM181400 VRB05KT 3SM BR VCSH BKN010
     FM182000 15007KT P6SM BKN050=



000
FTUS46 KSTO 180300 AAA
TAFSAC
TAF AMD
KSAC 180341Z 1804/1824 16007KT P6SM -RA SCT015 OVC050
      TEMPO 1804/1808 5SM RA BR SCT009 OVC018
     FM181400 VRB05KT 3SM BR VCSH BKN010
     FM182000 15007KT P6SM BKN050=



000
FTUS46 KSTO 180300 AAA
TAFSMF
TAF AMD
KSMF 180340Z 1804/1824 18007KT P6SM -RA OVC045
      TEMPO 1804/1808 5SM -RA BR OVC022
     FM181400 15006KT 3SM BR VCSH BKN010
     FM182000 16008KT P6SM BKN050=



000
FTUS46 KSTO 180300 AAA
TAFRDD
TAF AMD
KRDD 180339Z 1804/1824 18010KT P6SM -RA FEW016 SCT023 OVC060
     FM180400 18006KT 4SM -RA BR SCT015 OVC025
      TEMPO 1804/1807 2SM RA OVC015
     FM181400 VRB05KT 4SM BR VCSH OVC007
     FM182100 18006KT P6SM VCSH BKN050=



000
FTUS46 KSTO 172300
TAFSCK
TAF
KSCK 172323Z 1800/1824 16008KT P6SM OVC050
     FM180300 15008KT 6SM -SHRA SCT025 OVC040
      TEMPO 1804/1808 3SM -RA BR SCT012 OVC025
     FM181300 14006KT 4SM BR VCSH OVC015
     FM182100 14006KT P6SM BKN050=



000
FTUS46 KSTO 172300
TAFRDD
TAF
KRDD 172323Z 1800/1824 18010KT 6SM -SHRA OVC012
     FM180200 18006KT 4SM -RA BR SCT015 OVC025
      TEMPO 1803/1807 2SM RA OVC015
     FM181400 VRB05KT 4SM BR VCSH OVC007
     FM182100 18006KT P6SM VCSH BKN050=



000
FTUS46 KSTO 172300
TAFMHR
TAF
KMHR 172323Z 1800/1824 15009KT P6SM VCSH SCT025 OVC050
     FM180300 16007KT 6SM -SHRA SCT015 OVC025
      TEMPO 1804/1808 3SM RA BR SCT009 OVC015
     FM181400 VRB05KT 3SM BR VCSH BKN010
     FM182000 15007KT P6SM BKN050=



000
FTUS46 KSTO 172300
TAFSAC
TAF
KSAC 172323Z 1800/1824 16009KT P6SM VCSH SCT025 OVC050
     FM180300 16007KT 6SM -SHRA SCT015 OVC025
      TEMPO 1804/1808 3SM RA BR SCT009 OVC015
     FM181400 VRB05KT 3SM BR VCSH BKN010
     FM182000 15007KT P6SM BKN050=



000
FTUS46 KSTO 172300
TAFSMF
TAF
KSMF 172323Z 1800/1824 16011KT P6SM VCSH SCT025 OVC050
     FM180300 15008KT P6SM -SHRA SCT025 OVC045
      TEMPO 1804/1808 4SM -RA BR OVC020
     FM181400 15006KT 3SM BR VCSH BKN010
     FM182000 16008KT P6SM BKN050=



000
FTUS46 KSTO 172300
TAFRBL
TAF
KRBL 172323Z 1800/1824 16012KT 6SM -SHRA OVC015
     FM180400 16008KT 6SM -RA BR SCT012 OVC025
      TEMPO 1804/1808 3SM RA OVC012
     FM181400 16005KT 6SM BR VCSH OVC008
     FM182000 16012KT P6SM BKN050=



000
FTUS46 KSTO 172100 AAA
TAFRBL
TAF AMD
KRBL 172108Z 1721/1818 16011KT 6SM -SHRA OVC012
     FM180200 16008KT 6SM -RA BR SCT012 OVC025
      TEMPO 1803/1807 3SM RA OVC012
     FM181400 VRB05KT 6SM BR VCSH OVC008=



000
FTUS46 KSTO 171700
TAFRDD
TAF
KRDD 171736Z 1718/1818 18009KT 4SM BR VCSH OVC007
      TEMPO 1718/1722 2SM -SHRA BR
     FM172300 18010KT 6SM -SHRA OVC012
     FM180200 18006KT 4SM -RA BR SCT015 OVC025
      TEMPO 1803/1807 2SM RA OVC015
     FM181400 VRB05KT 4SM BR VCSH OVC007=



000
FTUS46 KSTO 171700
TAFRBL
TAF
KRBL 171736Z 1718/1818 16009KT 6SM BR VCSH OVC008
      TEMPO 1718/1722 2SM -SHRA BR
     FM172300 16011KT 6SM -SHRA OVC012
     FM180200 16008KT 6SM -RA BR SCT012 OVC025
      TEMPO 1803/1807 3SM RA OVC012
     FM181400 VRB05KT 6SM BR VCSH OVC008=



000
FTUS46 KSTO 171700
TAFMHR
TAF
KMHR 171736Z 1718/1818 15009KT P6SM VCSH SCT025 OVC040
      TEMPO 1718/1722 -SHRA BKN025
     FM180200 16007KT 6SM -SHRA SCT015 OVC025
      TEMPO 1804/1808 3SM -RA BR SCT009 OVC015=



000
FTUS46 KSTO 171700
TAFSAC
TAF
KSAC 171736Z 1718/1818 16009KT P6SM VCSH SCT025 OVC040
      TEMPO 1718/1722 -SHRA BKN025
     FM180200 16007KT 5SM -SHRA SCT015 OVC025
      TEMPO 1804/1808 2SM RA BR SCT009 OVC015=



000
FTUS46 KSTO 171700
TAFSMF
TAF
KSMF 171736Z 1718/1818 17011KT P6SM VCSH SCT025 OVC050
      TEMPO 1718/1722 -SHRA BKN025
     FM180200 15008KT P6SM -SHRA SCT025 OVC045
      TEMPO 1804/1808 4SM -RA BR OVC020=



000
FTUS46 KSTO 171700
TAFSCK
TAF
KSCK 171736Z 1718/1818 16008KT P6SM OVC050
     FM180200 15010KT 6SM -SHRA SCT025 OVC040
      TEMPO 1804/1808 3SM -RA BR SCT012 OVC025
     FM181300 14006KT 4SM BR VCSH OVC015=



000
FTUS46 KSTO 171100 RRA
TAFSAC
TAF
KSAC 171144Z 1712/1812 17006KT P6SM VCSH SCT035 BKN060 OVC080
     FM172000 16007KT 6SM -SHRA BR SCT020 OVC035
      TEMPO 1720/1724 4SM -SHRA BR SCT015 OVC020
     FM180200 14004KT 6SM BR SCT025 OVC035=



000
FTUS46 KSTO 171100 RRA
TAFSMF
TAF
KSMF 171144Z 1712/1812 16010KT P6SM VCSH SCT035 OVC060
     FM172000 17008KT 6SM -SHRA BR SCT020 OVC040
      TEMPO 1720/1724 3SM -SHRA BR SCT015 OVC020
     FM180200 16006KT 6SM BR SCT025 OVC035=



000
FTUS46 KSTO 171100 RRA
TAFMHR
TAF
KMHR 171144Z 1712/1812 17008KT P6SM VCSH SCT035 OVC050
     FM172000 16007KT 6SM -SHRA BR SCT020 OVC035
      TEMPO 1720/1724 4SM -SHRA BR SCT015 OVC020
     FM180200 14004KT P6SM SCT025 OVC035=



000
FTUS46 KSTO 171100 RRA
TAFSCK
TAF
KSCK 171144Z 1712/1812 12005KT P6SM VCSH SCT035 OVC060
      TEMPO 1722/1802 4SM -SHRA BR SCT025 OVC040
     FM180200 13004KT 3SM BR SCT025 OVC040=



000
FTUS46 KSTO 171100 RRA
TAFRDD
TAF
KRDD 171144Z 1712/1812 16012KT P6SM VCSH SCT012 OVC020
     FM171800 19006KT P6SM VCSH SCT025 OVC035
     FM180900 16005KT 6SM BR SCT010 BKN020=



000
FTUS46 KSTO 171100 RRA
TAFRBL
TAF
KRBL 171144Z 1712/1812 16012KT P6SM VCSH SCT020 OVC030
     FM171800 16007KT P6SM VCSH SCT025 OVC035
     FM180900 16005KT P6SM SCT015 BKN020=



    US Dept of Commerce
    National Oceanic and Atmospheric Administration
    National Weather Service
    1325 East West Highway
    Silver Spring, MD 20910
    Page Author: NWS Internet Services Team
Disclaimer
Information Quality
Credits
Glossary
Privacy Policy
Freedom of Information Act (FOIA)
About Us
Career Opportunities